Time;durP1;ratioP1;P1;durP2;ratioP2;P2;SDS_P1;SDS_P2;PMS_P1;PMS_P2;Temp;Humidity;BMP_temperature;BMP_pressure;BME280_temperature;BME280_humidity;BME280_pressure;Samples;Min_cycle;Max_cycle;Signal;HPM_P1;HPM_P2
2023/08/28 00:01:27;;;;;;;0.20;0.20;;;;;;;11.53;100.00;101045.72;5115240;28;20027;-50
2023/08/28 00:03:52;;;;;;;0.15;0.15;;;;;;;11.52;100.00;101053.41;5116291;28;20019;-51
2023/08/28 00:06:19;;;;;;;0.20;0.20;;;;;;;11.53;100.00;101043.13;5115847;28;20455;-50
2023/08/28 00:08:44;;;;;;;0.17;0.17;;;;;;;11.49;100.00;101046.44;5115643;28;20015;-50
2023/08/28 00:11:10;;;;;;;0.10;0.10;;;;;;;11.52;100.00;101043.94;5116249;28;20105;-48
2023/08/28 00:13:35;;;;;;;0.10;0.10;;;;;;;11.52;100.00;101040.50;5115757;28;20020;-51
2023/08/28 00:16:00;;;;;;;0.20;0.20;;;;;;;11.49;100.00;101033.53;5115139;28;20417;-51
2023/08/28 00:18:26;;;;;;;0.20;0.20;;;;;;;11.47;100.00;101037.78;5115480;28;20080;-51
2023/08/28 00:20:52;;;;;;;0.20;0.20;;;;;;;11.42;100.00;101041.94;5115873;28;20019;-51
2023/08/28 00:23:17;;;;;;;0.20;0.20;;;;;;;11.40;100.00;101043.59;5114908;28;20024;-50
2023/08/28 00:25:43;;;;;;;0.10;0.10;;;;;;;11.38;100.00;101040.09;5116027;28;20020;-51
2023/08/28 00:28:08;;;;;;;0.10;0.10;;;;;;;11.37;100.00;101038.34;5115071;28;20367;-50
2023/08/28 00:30:33;;;;;;;0.10;0.10;;;;;;;11.35;100.00;101037.44;5115381;28;20482;-51
2023/08/28 00:32:59;;;;;;;0.10;0.10;;;;;;;11.35;100.00;101034.84;5115629;28;20463;-50
2023/08/28 00:35:24;;;;;;;0.10;0.10;;;;;;;11.22;100.00;101032.72;5114756;28;20023;-51
2023/08/28 00:37:49;;;;;;;0.10;0.10;;;;;;;11.20;100.00;101036.13;5115706;28;20031;-50
2023/08/28 00:40:16;;;;;;;0.13;0.13;;;;;;;11.11;100.00;101024.69;5115338;28;20394;-51
2023/08/28 00:42:42;;;;;;;0.20;0.20;;;;;;;11.11;100.00;101024.69;5114891;28;20027;-49
2023/08/28 00:45:07;;;;;;;0.20;0.20;;;;;;;11.07;100.00;101017.69;5115460;28;20032;-51
2023/08/28 00:47:34;;;;;;;0.10;0.10;;;;;;;11.12;100.00;101029.00;5114906;28;20023;-51
2023/08/28 00:49:59;;;;;;;0.10;0.10;;;;;;;10.97;100.00;101021.66;5114881;27;20024;-48
2023/08/28 00:52:25;;;;;;;0.15;0.15;;;;;;;10.86;100.00;101016.19;5115173;28;20277;-50
2023/08/28 00:54:51;;;;;;;0.10;0.10;;;;;;;10.81;100.00;101016.03;5115242;28;20391;-51
2023/08/28 00:57:17;;;;;;;0.10;0.10;;;;;;;10.78;100.00;101015.94;5114169;28;20032;-51
2023/08/28 00:59:44;;;;;;;0.20;0.20;;;;;;;10.61;100.00;101017.09;5115264;28;20026;-51
2023/08/28 01:02:09;;;;;;;0.20;0.20;;;;;;;10.58;100.00;101022.19;5115356;27;20028;-51
2023/08/28 01:04:35;;;;;;;0.20;0.20;;;;;;;10.57;100.00;101021.28;5114252;28;20026;-49
2023/08/28 01:07:09;;;;;;;0.20;0.20;;;;;;;10.50;100.00;101015.06;5114033;28;20026;-49
2023/08/28 01:09:45;;;;;;;0.15;0.15;;;;;;;10.45;100.00;101011.47;5114938;28;20027;-50
2023/08/28 01:12:21;;;;;;;0.20;0.20;;;;;;;10.31;100.00;101008.38;5114230;28;20019;-50
2023/08/28 01:14:58;;;;;;;0.10;0.10;;;;;;;10.34;100.00;101007.59;5114985;28;20417;-51
2023/08/28 01:17:24;;;;;;;0.20;0.20;;;;;;;10.32;100.00;101009.28;5113960;28;20057;-49
2023/08/28 01:19:50;;;;;;;0.10;0.10;;;;;;;10.51;100.00;101011.66;5114923;28;20027;-51
2023/08/28 01:22:45;;;;;;;0.10;0.10;;;;;;;10.58;100.00;101014.44;5114534;28;20118;-51
2023/08/28 01:25:12;;;;;;;0.17;0.17;;;;;;;10.68;100.00;101013.91;5111793;28;20035;-51
2023/08/28 01:27:41;;;;;;;0.20;0.20;;;;;;;10.73;100.00;101014.03;5114758;28;20055;-51
2023/08/28 01:30:14;;;;;;;0.15;0.15;;;;;;;10.75;100.00;101010.69;5114740;28;20106;-50
2023/08/28 01:32:41;;;;;;;0.20;0.20;;;;;;;10.79;100.00;101004.78;5113767;28;20026;-51
2023/08/28 01:35:10;;;;;;;0.10;0.10;;;;;;;10.66;100.00;100997.50;5114650;28;20020;-50
2023/08/28 01:38:03;;;;;;;0.10;0.10;;;;;;;10.74;100.00;101003.75;5114064;28;20426;-51
2023/08/28 01:40:43;;;;;;;0.10;0.10;;;;;;;10.70;100.00;101002.81;5113493;28;20026;-50
2023/08/28 01:43:16;;;;;;;0.20;0.20;;;;;;;10.71;100.00;100998.53;5114511;28;20099;-50
2023/08/28 01:45:42;;;;;;;0.20;0.20;;;;;;;10.81;100.00;100994.53;5113554;28;20023;-51
2023/08/28 01:48:07;;;;;;;0.20;0.20;;;;;;;10.82;100.00;100996.28;5114082;28;20370;-51
2023/08/28 01:50:33;;;;;;;0.10;0.10;;;;;;;10.76;100.00;100988.38;5114133;28;20058;-51
2023/08/28 01:52:58;;;;;;;0.10;0.10;;;;;;;10.86;100.00;100987.84;5113477;28;20027;-49
2023/08/28 01:55:46;;;;;;;0.10;0.10;;;;;;;10.84;100.00;100987.75;5113721;28;20074;-50
2023/08/28 01:58:15;;;;;;;0.10;0.10;;;;;;;10.80;100.00;100991.06;5113901;28;20052;-47
2023/08/28 02:00:40;;;;;;;0.20;0.20;;;;;;;10.83;100.00;100995.44;5113241;28;20028;-51
2023/08/28 02:03:07;;;;;;;0.10;0.10;;;;;;;10.83;100.00;100995.44;5114177;28;20068;-51
2023/08/28 02:05:32;;;;;;;0.20;0.20;;;;;;;10.81;100.00;100992.84;5113899;28;20023;-50
2023/08/28 02:07:58;;;;;;;0.20;0.20;;;;;;;10.80;100.00;100988.50;5113221;28;20036;-49
2023/08/28 02:10:24;;;;;;;0.20;0.20;;;;;;;10.68;100.00;100982.97;5113611;28;20028;-49
2023/08/28 02:12:49;;;;;;;0.20;0.20;;;;;;;10.67;100.00;100976.94;5113859;28;20424;-51
2023/08/28 02:15:15;;;;;;;0.20;0.20;;;;;;;10.66;100.00;100971.72;5112941;27;20467;-51
2023/08/28 02:17:40;;;;;;;0.20;0.20;;;;;;;10.51;100.00;100969.56;5113536;28;20140;-49
2023/08/28 02:20:06;;;;;;;0.20;0.20;;;;;;;10.50;100.00;100968.66;5113720;28;20442;-50
2023/08/28 02:22:31;;;;;;;0.20;0.20;;;;;;;10.44;100.00;100971.03;5112653;28;20028;-51
2023/08/28 02:24:58;;;;;;;0.20;0.20;;;;;;;10.30;100.00;100967.13;5113462;28;20031;-51
2023/08/28 02:27:24;;;;;;;0.10;0.10;;;;;;;10.31;100.00;100976.59;5113296;28;20023;-51
2023/08/28 02:29:49;;;;;;;0.10;0.10;;;;;;;10.35;100.00;100983.59;5112918;28;20360;-51
2023/08/28 02:32:14;;;;;;;0.20;0.20;;;;;;;10.36;100.00;100986.25;5113443;28;20363;-48
2023/08/28 02:34:40;;;;;;;0.20;0.20;;;;;;;10.34;100.00;100989.56;5113412;28;20110;-50
2023/08/28 02:37:05;;;;;;;0.10;0.10;;;;;;;10.35;100.00;100988.75;5113531;28;20107;-49
2023/08/28 02:39:30;;;;;;;0.20;0.20;;;;;;;10.34;100.00;100982.75;5113134;28;20074;-51
2023/08/28 02:41:56;;;;;;;0.20;0.20;;;;;;;10.37;100.00;100977.72;5112617;28;20024;-49
2023/08/28 02:44:21;;;;;;;0.20;0.20;;;;;;;10.32;100.00;100975.78;5113306;28;20049;-50
2023/08/28 02:46:47;;;;;;;0.20;0.20;;;;;;;10.31;100.00;100971.44;5113440;28;20023;-49
2023/08/28 02:49:12;;;;;;;0.20;0.20;;;;;;;10.31;100.00;100976.59;5112355;28;20053;-50
2023/08/28 02:51:37;;;;;;;0.20;0.20;;;;;;;10.34;100.00;100981.84;5113197;28;20027;-51
2023/08/28 02:54:03;;;;;;;0.17;0.17;;;;;;;10.36;100.00;100986.25;5113178;28;20047;-50
2023/08/28 02:56:37;;;;;;;0.20;0.20;;;;;;;10.38;100.00;100987.19;5112110;28;20031;-51
2023/08/28 02:59:02;;;;;;;0.17;0.17;;;;;;;10.29;100.00;100994.59;5113328;28;20028;-51
2023/08/28 03:01:27;;;;;;;0.20;0.20;;;;;;;10.18;100.00;100991.66;5113017;28;20097;-51
2023/08/28 03:03:53;;;;;;;0.20;0.20;;;;;;;10.23;100.00;100993.53;5112584;28;20485;-49
2023/08/28 03:06:18;;;;;;;0.13;0.13;;;;;;;10.08;100.00;100989.59;5112762;28;20431;-51
2023/08/28 03:08:43;;;;;;;0.20;0.20;;;;;;;10.03;100.00;100980.81;5113023;28;20028;-49
2023/08/28 03:11:09;;;;;;;0.20;0.20;;;;;;;9.94;100.00;100990.81;5112296;28;20100;-51
2023/08/28 03:13:34;;;;;;;0.20;0.20;;;;;;;10.00;100.00;101004.78;5112784;28;20023;-50
2023/08/28 03:16:00;;;;;;;0.17;0.17;;;;;;;10.10;100.00;101002.53;5113304;28;20066;-50
2023/08/28 03:18:25;;;;;;;0.20;0.20;;;;;;;10.03;100.00;101002.31;5111939;28;20028;-50
2023/08/28 03:20:50;;;;;;;0.20;0.20;;;;;;;10.01;100.00;100998.81;5112904;28;20027;-50
2023/08/28 03:23:17;;;;;;;0.20;0.20;;;;;;;10.03;100.00;101006.56;5112829;28;20106;-50
2023/08/28 03:25:42;;;;;;;0.20;0.20;;;;;;;9.84;100.00;101011.09;5112120;28;20030;-50
2023/08/28 03:28:08;;;;;;;0.10;0.10;;;;;;;9.86;100.00;101019.75;5113125;28;20106;-49
2023/08/28 03:30:34;;;;;;;0.20;0.20;;;;;;;9.75;100.00;101004.72;5114366;28;20449;-51
2023/08/28 03:32:59;;;;;;;0.20;0.20;;;;;;;9.86;100.00;101012.03;5116121;28;20417;-50
2023/08/28 03:35:24;;;;;;;0.20;0.20;;;;;;;9.76;100.00;101022.84;5116662;28;20058;-49
2023/08/28 03:37:50;;;;;;;0.20;0.20;;;;;;;9.74;100.00;101015.88;5116839;28;20054;-50
2023/08/28 03:40:15;;;;;;;0.20;0.20;;;;;;;9.69;100.00;101007.97;5115599;28;20466;-48
2023/08/28 03:42:40;;;;;;;0.20;0.20;;;;;;;9.69;100.00;101015.69;5116638;28;20160;-50
2023/08/28 03:45:06;;;;;;;0.20;0.20;;;;;;;9.70;100.00;101026.03;5115931;28;20103;-51
2023/08/28 03:47:32;;;;;;;0.20;0.20;;;;;;;9.70;100.00;101033.75;5116497;28;20172;-50
2023/08/28 03:49:57;;;;;;;0.20;0.20;;;;;;;9.82;100.00;101027.31;5116582;28;20019;-49
2023/08/28 03:52:22;;;;;;;0.20;0.20;;;;;;;9.72;100.00;101031.25;5115593;28;20056;-49
2023/08/28 03:54:47;;;;;;;0.20;0.20;;;;;;;9.67;100.00;101037.91;5116199;28;20043;-50
2023/08/28 03:57:13;;;;;;;0.20;0.20;;;;;;;9.88;100.00;101027.53;5116220;28;20104;-50
2023/08/28 03:59:38;;;;;;;0.10;0.10;;;;;;;9.95;100.00;101038.91;5115587;28;20028;-50
2023/08/28 04:02:03;;;;;;;0.20;0.20;;;;;;;10.03;100.00;101045.19;5116513;28;20471;-51
2023/08/28 04:04:29;;;;;;;0.20;0.20;;;;;;;10.12;100.00;101053.28;5116045;28;20031;-50
2023/08/28 04:06:58;;;;;;;0.15;0.15;;;;;;;10.18;100.00;101044.88;5115620;28;20032;-51
2023/08/28 04:09:23;;;;;;;0.20;0.20;;;;;;;10.25;100.00;101049.41;5115852;28;20032;-51
2023/08/28 04:11:49;;;;;;;0.20;0.20;;;;;;;10.26;100.00;101047.72;5116057;28;20024;-50
2023/08/28 04:14:14;;;;;;;0.20;0.20;;;;;;;10.35;100.00;101050.59;5115289;28;20027;-50
2023/08/28 04:16:39;;;;;;;0.20;0.20;;;;;;;10.33;100.00;101052.25;5116175;28;20069;-51
2023/08/28 04:19:05;;;;;;;0.20;0.20;;;;;;;10.35;100.00;101055.75;5115993;28;20024;-50
2023/08/28 04:21:30;;;;;;;0.15;0.15;;;;;;;10.34;100.00;101052.31;5114833;28;20122;-50
2023/08/28 04:23:55;;;;;;;0.17;0.17;;;;;;;10.41;100.00;101053.41;5115797;28;20045;-51
2023/08/28 04:26:21;;;;;;;0.20;0.20;;;;;;;10.42;100.00;101055.16;5115447;28;20445;-50
2023/08/28 04:28:46;;;;;;;0.20;0.20;;;;;;;10.43;100.00;101056.03;5115126;28;20019;-50
2023/08/28 04:31:13;;;;;;;0.20;0.20;;;;;;;10.43;100.00;101053.47;5115745;28;20024;-47
2023/08/28 04:33:39;;;;;;;0.20;0.20;;;;;;;10.47;100.00;101056.19;5115862;28;20026;-51
2023/08/28 04:36:04;;;;;;;0.20;0.20;;;;;;;10.47;100.00;101057.88;5114972;28;20110;-51
2023/08/28 04:38:29;;;;;;;0.20;0.20;;;;;;;10.34;100.00;101056.56;5115124;28;20025;-51
2023/08/28 04:40:55;;;;;;;0.10;0.10;;;;;;;10.27;100.00;101067.50;5115223;28;20111;-45
2023/08/28 04:43:20;;;;;;;0.20;0.20;;;;;;;10.29;100.00;101060.69;5114434;28;20019;-50
2023/08/28 04:45:48;;;;;;;0.20;0.20;;;;;;;10.17;100.00;101064.59;5115550;28;20034;-49
2023/08/28 04:48:13;;;;;;;0.20;0.20;;;;;;;10.15;100.00;101066.25;5115114;28;20020;-49
2023/08/28 04:50:39;;;;;;;0.17;0.17;;;;;;;10.19;100.00;101051.78;5114916;28;20088;-49
2023/08/28 04:53:04;;;;;;;0.17;0.17;;;;;;;10.21;100.00;101047.53;5115291;28;20076;-49
2023/08/28 04:55:29;;;;;;;0.20;0.20;;;;;;;10.20;100.00;101051.81;5114031;28;20055;-46
2023/08/28 04:57:55;;;;;;;0.20;0.20;;;;;;;10.18;100.00;101042.28;5115361;28;20064;-47
2023/08/28 05:00:20;;;;;;;0.20;0.20;;;;;;;10.18;100.00;101040.56;5115125;28;20031;-49
2023/08/28 05:02:45;;;;;;;0.10;0.10;;;;;;;10.18;100.00;101042.28;5114496;28;20008;-46
2023/08/28 05:05:11;;;;;;;0.20;0.20;;;;;;;10.14;100.00;101051.59;5115159;28;20016;-48
2023/08/28 05:07:36;;;;;;;0.20;0.20;;;;;;;10.17;100.00;101050.84;5114871;28;20164;-48
2023/08/28 05:10:01;;;;;;;0.20;0.20;;;;;;;10.19;100.00;101036.31;5114174;28;20423;-47
2023/08/28 05:12:27;;;;;;;0.20;0.20;;;;;;;10.27;100.00;101034.00;5114829;28;20096;-51
2023/08/28 05:14:52;;;;;;;0.20;0.20;;;;;;;10.37;100.00;101025.81;5115131;28;20015;-47
2023/08/28 05:17:17;;;;;;;0.20;0.20;;;;;;;10.45;100.00;101032.06;5113579;28;20024;-51
2023/08/28 05:19:42;;;;;;;0.20;0.20;;;;;;;10.53;100.00;101033.22;5114796;28;20110;-50
2023/08/28 05:22:08;;;;;;;0.20;0.20;;;;;;;10.48;100.00;101032.19;5114691;28;20106;-50
2023/08/28 05:24:33;;;;;;;0.20;0.20;;;;;;;10.52;100.00;101031.47;5113658;28;20032;-49
2023/08/28 05:26:58;;;;;;;0.20;0.20;;;;;;;10.55;100.00;101028.09;5114927;28;20020;-49
2023/08/28 05:29:24;;;;;;;0.10;0.10;;;;;;;10.67;100.00;101032.78;5114502;28;20023;-48
2023/08/28 05:31:49;;;;;;;0.20;0.20;;;;;;;10.75;100.00;101033.88;5113921;28;20023;-48
2023/08/28 05:34:15;;;;;;;0.20;0.20;;;;;;;10.91;100.00;101036.94;5114311;28;20039;-46
2023/08/28 05:36:40;;;;;;;0.20;0.20;;;;;;;11.01;100.00;101033.81;5114564;28;20459;-47
2023/08/28 05:39:05;;;;;;;0.10;0.10;;;;;;;11.12;100.00;101041.91;5113606;28;20023;-50
2023/08/28 05:41:31;;;;;;;0.20;0.20;;;;;;;11.21;100.00;101034.44;5114245;28;20196;-49
2023/08/28 05:43:56;;;;;;;0.20;0.20;;;;;;;11.30;100.00;101037.28;5114458;28;20107;-50
2023/08/28 05:46:21;;;;;;;0.20;0.20;;;;;;;11.38;100.00;101032.34;5113295;28;20110;-51
2023/08/28 05:48:46;;;;;;;0.20;0.20;;;;;;;11.45;100.00;101034.28;5114444;28;20455;-51
2023/08/28 05:51:15;;;;;;;0.20;0.20;;;;;;;11.53;100.00;101037.09;5114016;28;20068;-47
2023/08/28 05:53:40;;;;;;;0.20;0.20;;;;;;;11.51;100.00;101042.19;5112552;28;20044;-51
2023/08/28 05:56:05;;;;;;;0.10;0.10;;;;;;;11.59;100.00;101038.97;5114076;28;20348;-50
2023/08/28 05:58:31;;;;;;;0.10;0.10;;;;;;;11.64;100.00;101042.56;5113916;28;20024;-49
2023/08/28 06:00:56;;;;;;;0.20;0.20;;;;;;;11.67;100.00;101045.22;5113317;28;20106;-50
2023/08/28 06:03:21;;;;;;;0.10;0.10;;;;;;;11.75;100.00;101046.31;5113722;28;20159;-51
2023/08/28 06:05:47;;;;;;;0.10;0.10;;;;;;;11.82;100.00;101045.63;5113176;28;20118;-51
2023/08/28 06:08:12;;;;;;;0.10;0.10;;;;;;;11.82;100.00;101040.47;5113547;28;20485;-50
2023/08/28 06:10:40;;;;;;;0.20;0.20;;;;;;;11.84;100.00;101038.81;5113971;28;20024;-51
2023/08/28 06:13:05;;;;;;;;;;;;;;;11.93;100.00;101043.38;5113718;28;20023;-51
2023/08/28 06:15:31;;;;;;;0.20;0.20;;;;;;;12.00;100.00;101041.84;5113356;28;20284;-50
2023/08/28 06:17:56;;;;;;;0.20;0.20;;;;;;;12.08;100.00;101030.00;5113650;28;20042;-50
2023/08/28 06:20:25;;;;;;;0.17;0.17;;;;;;;12.15;100.00;101031.06;5112620;28;20024;-51
2023/08/28 06:22:50;;;;;;;0.10;0.10;;;;;;;12.22;100.00;101035.53;5113814;28;20077;-46
2023/08/28 06:25:16;;;;;;;0.10;0.10;;;;;;;12.29;100.00;101040.03;5113486;28;20114;-50
2023/08/28 06:27:41;;;;;;;0.10;0.10;;;;;;;12.39;100.00;101037.69;5113095;28;20518;-51
2023/08/28 06:30:07;;;;;;;0.10;0.10;;;;;;;12.47;100.00;101046.50;5113699;28;20092;-50
2023/08/28 06:32:32;;;;;;;0.20;0.20;;;;;;;12.55;100.00;101042.41;5113063;28;20028;-50
2023/08/28 06:34:59;;;;;;;0.10;0.10;;;;;;;12.64;100.00;101054.66;5112737;28;20047;-50
2023/08/28 06:37:24;;;;;;;0.10;0.10;;;;;;;12.72;100.00;101054.84;5112881;28;20429;-51
2023/08/28 06:39:51;;;;;;;0.30;0.10;;;;;;;12.80;100.00;101045.56;5113591;28;20020;-51
2023/08/28 06:42:17;;;;;;;0.10;0.10;;;;;;;12.90;100.00;101044.97;5112441;28;20073;-50
2023/08/28 06:44:42;;;;;;;0.10;0.10;;;;;;;12.97;100.00;101040.78;5113511;28;20027;-50
2023/08/28 06:47:07;;;;;;;0.10;0.10;;;;;;;13.10;100.00;101045.41;5113207;28;20041;-51
2023/08/28 06:49:33;;;;;;;0.10;0.10;;;;;;;13.20;100.00;101056.84;5112237;28;20024;-51
2023/08/28 06:51:58;;;;;;;0.10;0.10;;;;;;;13.28;100.00;101052.69;5113152;28;20050;-50
2023/08/28 06:54:24;;;;;;;0.10;0.10;;;;;;;13.44;100.00;101059.13;5112928;28;20482;-49
2023/08/28 06:56:49;;;;;;;0.10;0.10;;;;;;;13.55;100.00;101067.09;5112666;28;20072;-48
2023/08/28 06:59:14;;;;;;;0.10;0.10;;;;;;;13.64;100.00;101063.84;5112766;28;20410;-50
2023/08/28 07:01:41;;;;;;;0.10;0.10;;;;;;;13.74;100.00;101073.53;5113220;28;20471;-49
2023/08/28 07:04:07;;;;;;;0.10;0.10;;;;;;;13.83;100.00;101067.69;5112536;28;20047;-51
2023/08/28 07:06:32;;;;;;;0.10;0.10;;;;;;;13.91;100.00;101076.47;5116059;28;20059;-51
2023/08/28 07:08:57;;;;;;;0.10;0.10;;;;;;;14.02;100.00;101087.06;5117014;27;20028;-50
2023/08/28 07:11:23;;;;;;;0.15;0.15;;;;;;;14.06;100.00;101085.38;5116799;28;20020;-51
2023/08/28 07:13:49;;;;;;;0.10;0.10;;;;;;;14.18;100.00;101084.72;5117555;28;20023;-48
2023/08/28 07:16:15;;;;;;;0.10;0.10;;;;;;;14.25;100.00;101084.00;5116155;28;20039;-51
2023/08/28 07:18:40;;;;;;;0.10;0.10;;;;;;;14.39;100.00;101079.06;5117295;28;20031;-47
2023/08/28 07:21:05;;;;;;;0.00;0.00;;;;;;;14.41;100.00;101075.66;5117253;28;20459;-46
2023/08/28 07:23:31;;;;;;;0.10;0.10;;;;;;;14.52;100.00;101073.22;5116007;28;20028;-50
2023/08/28 07:25:58;;;;;;;0.10;0.10;;;;;;;14.51;100.00;101078.41;5117249;28;20499;-50
2023/08/28 07:28:24;;;;;;;0.10;0.10;;;;;;;14.53;100.00;101082.78;5116706;28;20032;-46
2023/08/28 07:30:50;;;;;;;0.10;0.10;;;;;;;14.69;100.00;101078.72;5113498;27;20042;-50
2023/08/28 07:33:15;;;;;;;0.10;0.10;;;;;;;14.75;100.00;101070.19;5116212;28;20059;-47
2023/08/28 07:35:45;;;;;;;0.10;0.10;;;;;;;14.97;100.00;101074.00;5116404;28;20390;-49
2023/08/28 07:38:10;;;;;;;0.10;0.10;;;;;;;15.02;100.00;101076.66;5116161;28;20103;-50
2023/08/28 07:40:36;;;;;;;0.10;0.10;;;;;;;15.13;100.00;101075.97;5116545;28;20055;-46
2023/08/28 07:43:02;;;;;;;0.00;0.00;;;;;;;15.30;100.00;101073.59;5116616;28;20382;-51
2023/08/28 07:45:28;;;;;;;0.10;0.10;;;;;;;15.52;100.00;101070.41;5115563;28;20030;-49
2023/08/28 07:47:55;;;;;;;0.10;0.10;;;;;;;15.67;100.00;101067.13;5116623;28;20027;-47
2023/08/28 07:50:21;;;;;;;0.10;0.10;;;;;;;15.95;100.00;101076.16;5116304;28;20012;-45
2023/08/28 07:52:46;;;;;;;0.05;0.05;;;;;;;16.20;100.00;101068.63;5115983;28;20486;-46
2023/08/28 07:55:12;;;;;;;0.10;0.10;;;;;;;16.31;100.00;101072.19;5116140;28;20111;-45
2023/08/28 07:57:37;;;;;;;0.10;0.10;;;;;;;16.52;100.00;101078.47;5116489;28;20055;-49
2023/08/28 08:00:06;;;;;;;0.10;0.10;;;;;;;16.66;100.00;101074.22;5115901;28;20115;-49
2023/08/28 08:02:32;;;;;;;0.10;0.10;;;;;;;16.89;100.00;101070.94;5115955;28;20421;-50
2023/08/28 08:04:58;;;;;;;0.10;0.10;;;;;;;17.02;100.00;101072.78;5116104;28;20489;-50
2023/08/28 08:07:23;;;;;;;0.10;0.10;;;;;;;17.22;100.00;101074.66;5115422;28;20028;-50
2023/08/28 08:09:48;;;;;;;0.10;0.10;;;;;;;17.23;100.00;101082.47;5116290;28;20023;-48
2023/08/28 08:12:14;;;;;;;0.08;0.08;;;;;;;17.25;100.00;101078.16;5115452;28;20043;-49
2023/08/28 08:14:39;;;;;;;0.10;0.10;;;;;;;17.38;100.00;101080.81;5115734;28;20023;-47
2023/08/28 08:17:04;;;;;;;0.10;0.10;;;;;;;17.44;100.00;101081.72;5115311;28;20031;-48
2023/08/28 08:19:30;;;;;;;0.00;0.00;;;;;;;17.40;100.00;101079.97;5114919;28;20112;-46
2023/08/28 08:21:55;;;;;;;0.08;0.08;;;;;;;17.39;100.00;101083.44;5116019;28;20051;-50
2023/08/28 08:24:20;;;;;;;0.08;0.08;;;;;;;17.38;100.00;101073.88;5115648;28;20023;-51
2023/08/28 08:26:46;;;;;;;0.10;0.10;;;;;;;17.43;100.00;101085.19;5115235;28;20019;-49
2023/08/28 08:29:11;;;;;;;0.03;0.03;;;;;;;17.44;100.00;101088.66;5115907;27;20024;-47
2023/08/28 08:31:37;;;;;;;0.00;0.00;;;;;;;17.40;100.00;101085.19;5115666;28;20027;-50
2023/08/28 08:34:02;;;;;;;0.10;0.10;;;;;;;17.46;100.00;101088.69;5114858;28;20024;-49
2023/08/28 08:36:28;;;;;;;0.10;0.10;;;;;;;17.26;100.00;101084.22;5115278;28;20048;-47
2023/08/28 08:38:53;;;;;;;0.05;0.05;;;;;;;17.47;100.00;101088.69;5115745;27;20027;-49
2023/08/28 08:41:19;;;;;;;0.10;0.10;;;;;;;17.33;100.00;101093.81;5114576;28;20019;-46
2023/08/28 08:43:44;;;;;;;0.10;0.10;;;;;;;17.52;100.00;101094.78;5115516;28;20495;-49
2023/08/28 08:46:10;;;;;;;0.10;0.10;;;;;;;17.84;100.00;101101.00;5115732;28;20035;-49
2023/08/28 08:48:36;;;;;;;0.00;0.00;;;;;;;18.22;100.00;101095.06;5114444;28;20023;-49
2023/08/28 08:51:06;;;;;;;0.10;0.10;;;;;;;18.75;100.00;101099.44;5115674;28;20024;-47
2023/08/28 08:53:59;;;;;;;0.00;0.00;;;;;;;18.76;100.00;101090.75;5114853;28;20039;-50
2023/08/28 08:56:31;;;;;;;0.00;0.00;;;;;;;18.28;100.00;101089.81;5114275;28;20386;-48
2023/08/28 08:58:57;;;;;;;0.00;0.00;;;;;;;18.21;100.00;101099.38;5115139;28;20027;-49
2023/08/28 09:01:25;;;;;;;0.00;0.00;;;;;;;18.15;100.00;101093.28;5115190;28;20050;-46
2023/08/28 09:03:50;;;;;;;;;;;;;;;18.38;100.00;101096.81;5115021;28;20011;-50
2023/08/28 09:06:16;;;;;;;0.00;0.00;;;;;;;17.90;100.00;101090.59;5114699;28;19911;-51
2023/08/28 09:08:42;;;;;;;0.00;0.00;;;;;;;17.73;100.00;101095.75;5114530;28;20073;-47
2023/08/28 09:11:08;;;;;;;0.00;0.00;;;;;;;17.56;100.00;101095.69;5115117;28;20031;-46
2023/08/28 09:13:35;;;;;;;0.10;0.10;;;;;;;17.48;100.00;101097.34;5114685;28;20032;-46
2023/08/28 09:16:00;;;;;;;0.00;0.00;;;;;;;17.56;100.00;101098.28;5114097;28;20020;-46
2023/08/28 09:18:26;;;;;;;0.10;0.10;;;;;;;17.55;100.00;101091.31;5114536;28;20031;-50
2023/08/28 09:21:11;;;;;;;0.00;0.00;;;;;;;17.44;100.00;101097.34;5114847;28;20046;-48
2023/08/28 09:23:44;;;;;;;0.05;0.05;;;;;;;17.21;100.00;101089.41;5114060;28;20028;-49
2023/08/28 09:26:28;;;;;;;0.10;0.10;;;;;;;17.20;100.00;101081.59;5114616;27;20428;-51
2023/08/28 09:29:11;;;;;;;0.00;0.00;;;;;;;17.07;100.00;101084.13;5113735;28;20024;-50
2023/08/28 09:31:42;;;;;;;0.10;0.10;;;;;;;16.89;100.00;101082.22;5113919;28;20073;-51
2023/08/28 09:34:08;;;;;;;0.00;0.00;;;;;;;16.98;100.00;101081.44;5114708;28;20027;-47
2023/08/28 09:36:35;;;;;;;0.00;0.00;;;;;;;17.10;100.00;101086.72;5114087;28;20042;-51
2023/08/28 09:39:02;;;;;;;0.00;0.00;;;;;;;17.20;100.00;101089.41;5113823;28;20049;-50
2023/08/28 09:41:36;;;;;;;0.10;0.10;;;;;;;17.26;100.00;101097.22;5114404;28;20034;-47
2023/08/28 09:44:01;;;;;;;0.10;0.10;;;;;;;17.35;100.00;101097.31;5113928;28;20032;-51
2023/08/28 09:46:27;;;;;;;0.10;0.10;;;;;;;17.66;100.00;101100.03;5114083;28;20029;-47
2023/08/28 09:48:53;;;;;;;0.00;0.00;;;;;;;17.78;100.00;101097.50;5114295;28;20023;-50
2023/08/28 09:51:18;;;;;;;0.10;0.10;;;;;;;18.20;100.00;101094.16;5113196;28;20028;-51
2023/08/28 09:53:44;;;;;;;0.03;0.03;;;;;;;18.28;100.00;101095.03;5114204;28;20114;-50
2023/08/28 09:56:09;;;;;;;0.00;0.00;;;;;;;18.48;100.00;101104.66;5114191;28;20027;-50
2023/08/28 09:58:35;;;;;;;0.10;0.10;;;;;;;18.65;100.00;101107.28;5113082;28;20062;-51
2023/08/28 10:01:02;;;;;;;0.00;0.00;;;;;;;18.97;100.00;101109.91;5114296;28;20055;-50
2023/08/28 10:03:28;;;;;;;0.00;0.00;;;;;;;18.98;99.83;101101.22;5113918;28;20046;-48
2023/08/28 10:05:57;;;;;;;0.00;0.00;;;;;;;19.41;97.82;101095.88;5113316;28;20055;-50
2023/08/28 10:08:27;;;;;;;0.00;0.00;;;;;;;19.65;94.04;101103.63;5113681;28;20020;-46
2023/08/28 10:10:56;;;;;;;0.00;0.00;;;;;;;19.64;89.32;101112.34;5114519;28;20016;-50
2023/08/28 10:13:22;;;;;;;0.00;0.00;;;;;;;19.57;92.12;101107.16;5112868;28;20387;-50
2023/08/28 10:16:03;;;;;;;0.00;0.00;;;;;;;19.93;94.16;101100.94;5113793;28;20485;-51
2023/08/28 10:18:39;;;;;;;0.00;0.00;;;;;;;20.67;86.42;101103.94;5113631;28;20027;-48
2023/08/28 10:21:06;;;;;;;0.00;0.00;;;;;;;20.80;78.60;101103.84;5113231;28;20030;-49
2023/08/28 10:23:35;;;;;;;0.00;0.00;;;;;;;21.28;81.22;101104.25;5113595;28;20019;-47
2023/08/28 10:26:06;;;;;;;0.00;0.00;;;;;;;21.70;78.25;101112.56;5112979;28;20051;-50
2023/08/28 10:28:32;;;;;;;0.00;0.00;;;;;;;21.64;74.75;101104.75;5113458;28;20454;-48
2023/08/28 10:30:58;;;;;;;0.00;0.00;;;;;;;21.87;74.38;101106.19;5113443;28;20375;-48
2023/08/28 10:33:25;;;;;;;0.00;0.00;;;;;;;21.75;71.16;101107.22;5112518;28;20016;-49
2023/08/28 10:35:53;;;;;;;0.00;0.00;;;;;;;21.42;71.21;101111.09;5113578;28;20031;-45
2023/08/28 10:38:20;;;;;;;0.00;0.00;;;;;;;22.15;71.00;101113.69;5113011;28;20375;-51
2023/08/28 10:40:50;;;;;;;0.00;0.00;;;;;;;22.60;71.09;101111.28;5112419;28;20028;-47
2023/08/28 10:43:19;;;;;;;0.00;0.00;;;;;;;23.56;67.35;101108.72;5113051;28;20035;-47
2023/08/28 10:45:46;;;;;;;0.00;0.00;;;;;;;23.56;65.54;101117.47;5113547;28;20043;-51
2023/08/28 10:48:12;;;;;;;0.00;0.00;;;;;;;22.94;64.39;101105.44;5112222;28;20467;-50
2023/08/28 10:50:38;;;;;;;0.00;0.00;;;;;;;23.01;60.38;101104.47;5113532;28;20039;-49
2023/08/28 10:53:05;;;;;;;0.00;0.00;;;;;;;23.33;65.51;101099.50;5113417;28;20050;-46
2023/08/28 10:55:30;;;;;;;0.00;0.00;;;;;;;23.61;58.64;101107.72;5112081;28;20040;-48
2023/08/28 10:58:00;;;;;;;0.00;0.00;;;;;;;24.28;57.73;101106.31;5113070;28;20031;-47
2023/08/28 11:00:27;;;;;;;0.00;0.00;;;;;;;25.69;54.34;101098.25;5113346;28;20030;-50
2023/08/28 11:03:05;;;;;;;0.00;0.00;;;;;;;25.80;54.81;101097.94;5112561;28;20027;-48
2023/08/28 11:05:31;;;;;;;0.00;0.00;;;;;;;25.75;51.58;101094.56;5112931;28;20098;-48
2023/08/28 11:07:56;;;;;;;0.00;0.00;;;;;;;25.43;51.67;101104.28;5113248;28;20094;-48
2023/08/28 11:10:25;;;;;;;0.00;0.00;;;;;;;24.82;51.74;101107.66;5112144;28;20024;-45
2023/08/28 11:12:56;;;;;;;0.00;0.00;;;;;;;24.47;54.32;101102.31;5113314;28;20020;-45
2023/08/28 11:15:29;;;;;;;0.00;0.00;;;;;;;24.06;57.14;101100.66;5112249;28;20156;-46
2023/08/28 11:18:13;;;;;;;0.00;0.00;;;;;;;23.74;62.26;101086.41;5113264;28;20081;-45